createdAt,value
2018-12-17T04:29:23.781Z,26.03
2018-12-17T04:31:56.791Z,25.33
2018-12-17T04:34:28.988Z,26.20
2018-12-17T04:37:02.241Z,25.73
2018-12-17T04:39:35.054Z,25.60
2018-12-17T04:42:07.346Z,24.37
2018-12-17T04:44:39.511Z,25.90
2018-12-17T04:47:12.502Z,25.60
2018-12-17T04:49:45.496Z,26.10
2018-12-17T04:52:18.393Z,24.67
2018-12-17T04:54:50.473Z,25.30
2018-12-17T04:57:22.767Z,26.47
2018-12-17T04:59:54.959Z,25.53
2018-12-17T05:02:27.202Z,25.17
2018-12-17T05:05:00.195Z,25.47
2018-12-17T05:07:33.281Z,24.13
2018-12-17T05:10:06.557Z,24.73
2018-12-17T05:12:39.276Z,23.90
2018-12-17T05:15:12.412Z,26.07
2018-12-17T05:17:45.308Z,23.73
2018-12-17T05:20:18.313Z,25.17
2018-12-17T05:22:50.513Z,25.30
2018-12-17T05:25:23.544Z,24.07
2018-12-17T05:27:56.498Z,24.63
2018-12-17T05:30:29.372Z,24.80
2018-12-17T05:33:02.335Z,25.33
2018-12-17T05:35:35.248Z,25.43
2018-12-17T05:38:07.745Z,26.37
2018-12-17T05:40:39.978Z,25.83
2018-12-17T05:43:13.503Z,27.00
2018-12-17T05:45:46.049Z,26.77
2018-12-17T05:48:18.247Z,26.33
2018-12-17T05:50:50.530Z,26.77
2018-12-17T05:53:26.137Z,26.17
2018-12-17T05:55:58.823Z,27.83
2018-12-17T05:58:32.129Z,26.40
2018-12-17T06:01:04.959Z,26.20
2018-12-17T06:03:38.038Z,26.37
2018-12-17T06:06:11.007Z,25.33
2018-12-17T06:08:43.223Z,27.83
2018-12-17T06:11:15.495Z,26.80
2018-12-17T06:13:48.633Z,26.27
2018-12-17T06:16:21.664Z,27.50
2018-12-17T06:18:54.715Z,26.93
2018-12-17T06:21:27.596Z,26.57
2018-12-17T06:23:59.708Z,26.60
2018-12-17T06:26:31.836Z,26.57
2018-12-17T06:29:04.063Z,27.87
2018-12-17T06:31:36.222Z,24.17
2018-12-17T06:34:08.332Z,34.67
2018-12-17T06:36:41.360Z,28.17
2018-12-17T06:39:14.814Z,27.90
2018-12-17T06:41:47.660Z,25.83
2018-12-17T06:44:22.473Z,25.47
2018-12-17T06:46:55.012Z,26.47
2018-12-17T06:49:27.993Z,26.43
2018-12-17T06:52:00.227Z,27.23
2018-12-17T06:54:33.547Z,27.30
2018-12-17T06:57:06.362Z,25.43
2018-12-17T06:59:42.658Z,25.60
2018-12-17T07:02:14.834Z,25.17
2018-12-17T07:04:47.465Z,26.47
2018-12-17T07:07:19.636Z,26.60
2018-12-17T07:09:51.775Z,30.23
2018-12-17T07:12:28.511Z,31.47
2018-12-17T07:15:01.260Z,34.57
2018-12-17T07:17:34.275Z,30.20
2018-12-17T07:20:07.855Z,30.00
2018-12-17T07:22:40.328Z,30.50
2018-12-17T07:25:14.189Z,28.70
2018-12-17T07:27:46.703Z,29.07
2018-12-17T07:30:19.729Z,28.90
2018-12-17T07:32:52.507Z,27.23
2018-12-17T07:35:25.537Z,26.00
2018-12-17T07:37:58.655Z,25.87
2018-12-17T07:40:31.558Z,26.93
2018-12-17T07:43:04.698Z,25.47
2018-12-17T07:45:35.773Z,26.30
2018-12-17T07:48:08.790Z,27.77
2018-12-17T07:50:41.981Z,26.27
2018-12-17T07:53:14.878Z,26.30
2018-12-17T07:55:47.711Z,25.30
2018-12-17T07:58:22.347Z,25.73
2018-12-17T08:00:57.713Z,28.03
2018-12-17T08:03:29.854Z,26.03
2018-12-17T08:06:03.174Z,30.00
2018-12-17T08:08:36.181Z,27.83
2018-12-17T08:11:09.767Z,29.27
2018-12-17T08:13:42.812Z,28.93
2018-12-17T08:16:16.047Z,27.50
2018-12-17T08:18:49.937Z,25.43
2018-12-17T08:21:26.195Z,25.17
2018-12-17T08:23:59.725Z,28.83
2018-12-17T08:26:34.938Z,26.73
2018-12-17T08:29:08.532Z,25.43
2018-12-17T08:31:41.891Z,24.53
2018-12-17T08:34:14.759Z,23.13
2018-12-17T08:36:49.501Z,25.60
2018-12-17T08:39:23.760Z,25.83
2018-12-17T08:41:59.266Z,26.07
2018-12-17T08:44:35.561Z,24.67
2018-12-17T08:47:08.510Z,24.07
2018-12-17T08:49:43.342Z,24.13
2018-12-17T08:52:18.142Z,23.27
2018-12-17T08:54:50.725Z,21.97
2018-12-17T08:57:25.264Z,22.77
2018-12-17T08:59:59.494Z,24.07
2018-12-17T09:02:35.417Z,25.20
2018-12-17T09:05:12.590Z,24.33
2018-12-17T09:07:48.020Z,24.10
2018-12-17T09:10:22.280Z,23.07
2018-12-17T09:12:56.315Z,22.17
2018-12-17T09:15:29.875Z,25.47
2018-12-17T09:18:02.938Z,24.47
2018-12-17T09:20:36.150Z,23.03
2018-12-17T09:23:10.951Z,22.23
2018-12-17T09:25:44.027Z,22.50
2018-12-17T09:28:17.462Z,21.77
2018-12-17T09:30:51.554Z,21.77
2018-12-17T09:33:23.943Z,23.57
2018-12-17T09:35:55.153Z,22.40
2018-12-17T09:38:27.964Z,21.60
2018-12-17T09:41:00.980Z,20.73
2018-12-17T09:43:33.192Z,21.27
2018-12-17T09:46:05.416Z,20.33
2018-12-17T09:48:37.710Z,19.90
2018-12-17T09:51:10.776Z,21.77
2018-12-17T09:53:43.837Z,20.47
2018-12-17T09:56:16.700Z,19.63
2018-12-17T09:58:48.939Z,17.77
2018-12-17T10:01:21.413Z,19.60
2018-12-17T10:03:53.524Z,17.63
2018-12-17T10:06:26.560Z,16.83
2018-12-17T10:08:58.644Z,17.33
2018-12-17T10:11:30.954Z,18.57
2018-12-17T10:14:04.326Z,19.30
2018-12-17T10:16:37.224Z,20.00
2018-12-17T10:19:09.311Z,20.10
2018-12-17T10:21:41.443Z,19.77
2018-12-17T10:24:13.975Z,20.20
2018-12-17T10:26:47.817Z,20.83
2018-12-17T10:29:20.616Z,22.53
2018-12-17T10:31:52.876Z,21.20
2018-12-17T10:34:25.296Z,19.50
2018-12-17T10:36:59.836Z,18.00
2018-12-17T10:39:33.187Z,18.50
2018-12-17T10:42:06.704Z,20.17
2018-12-17T10:44:41.973Z,19.47
2018-12-17T10:47:15.006Z,20.13
2018-12-17T10:49:47.937Z,18.10
2018-12-17T10:52:20.707Z,17.63
2018-12-17T10:54:53.043Z,18.77
2018-12-17T10:57:27.020Z,18.07
2018-12-17T11:00:01.171Z,17.20
2018-12-17T11:02:35.836Z,18.90
2018-12-17T11:05:12.695Z,21.30
2018-12-17T11:07:45.452Z,20.07
2018-12-17T11:10:19.488Z,19.00
2018-12-17T11:12:52.314Z,32.90
2018-12-17T11:15:25.404Z,34.80
2018-12-17T11:17:59.672Z,26.80
2018-12-17T11:20:32.615Z,25.23
2018-12-17T11:23:06.298Z,20.97
2018-12-17T11:25:37.669Z,31.07
2018-12-17T11:28:10.058Z,23.40
2018-12-17T11:30:46.739Z,20.37
2018-12-17T11:33:19.440Z,20.70
2018-12-17T11:35:52.441Z,18.30
2018-12-17T11:38:25.477Z,18.13
2018-12-17T11:40:57.645Z,18.87
2018-12-17T11:43:29.998Z,19.47
2018-12-17T11:46:07.312Z,19.80
2018-12-17T11:48:40.280Z,19.33
2018-12-17T11:51:12.797Z,18.87
2018-12-17T11:53:45.772Z,18.37
2018-12-17T11:56:18.008Z,19.10
2018-12-17T11:58:51.040Z,18.00
2018-12-17T12:01:25.591Z,18.60
2018-12-17T12:03:57.759Z,18.70
2018-12-17T12:06:30.093Z,18.90
2018-12-17T12:09:03.820Z,18.60
2018-12-17T12:11:38.297Z,18.80
2018-12-17T12:14:10.547Z,17.93
2018-12-17T12:16:42.928Z,17.27
2018-12-17T12:19:15.803Z,17.70
2018-12-17T12:21:48.718Z,15.97
2018-12-17T12:24:21.054Z,16.37
2018-12-17T12:26:53.312Z,15.60
2018-12-17T12:29:25.624Z,15.57
2018-12-17T12:31:58.656Z,17.67
2018-12-17T12:34:38.045Z,17.57
2018-12-17T12:37:10.466Z,16.90
2018-12-17T12:39:43.419Z,16.07
2018-12-17T12:42:17.904Z,15.83
2018-12-17T12:44:50.815Z,15.87
2018-12-17T12:47:24.844Z,15.53
2018-12-17T12:49:57.866Z,16.00
2018-12-17T12:52:30.069Z,16.07
2018-12-17T12:55:03.218Z,17.43
2018-12-17T12:57:36.032Z,20.00
2018-12-17T13:00:11.556Z,17.40
2018-12-17T13:02:45.272Z,16.83
2018-12-17T13:05:17.551Z,16.50
2018-12-17T13:07:52.463Z,17.07
2018-12-17T13:10:24.784Z,25.37
2018-12-17T13:12:57.962Z,20.50
2018-12-17T13:15:30.839Z,18.77
2018-12-17T13:18:04.019Z,18.57
2018-12-17T13:20:37.308Z,16.20
2018-12-17T13:23:09.836Z,15.53
2018-12-17T13:25:46.077Z,16.97
2018-12-17T13:28:19.097Z,15.33
2018-12-17T13:30:51.260Z,15.70
2018-12-17T13:33:23.692Z,16.27
2018-12-17T13:35:56.404Z,15.67
2018-12-17T13:38:28.585Z,15.83
2018-12-17T13:41:00.639Z,16.63
2018-12-17T13:46:06.215Z,15.50
2018-12-17T13:48:38.597Z,16.23
2018-12-17T13:51:16.836Z,16.60
2018-12-17T13:53:49.679Z,23.57
2018-12-17T13:56:22.665Z,17.50
2018-12-17T13:58:55.657Z,16.43
2018-12-17T14:01:27.861Z,16.27
2018-12-17T14:04:00.875Z,16.20
2018-12-17T14:06:33.925Z,16.30
2018-12-17T14:09:07.741Z,16.67
2018-12-17T14:11:42.900Z,18.40
2018-12-17T14:14:15.899Z,18.97
2018-12-17T14:16:53.377Z,17.37
2018-12-17T14:19:25.921Z,18.03
2018-12-17T14:21:59.675Z,17.50
2018-12-17T14:24:32.356Z,17.70
2018-12-17T14:27:04.632Z,18.17
2018-12-17T14:29:36.739Z,17.77
2018-12-17T14:32:09.669Z,18.10
2018-12-17T14:34:42.646Z,18.30
2018-12-17T14:37:14.739Z,18.83
2018-12-17T14:39:53.357Z,18.60
2018-12-17T14:42:25.950Z,18.63
2018-12-17T14:44:58.052Z,19.33
2018-12-17T14:47:31.093Z,17.80
2018-12-17T14:50:04.628Z,17.83
2018-12-17T14:52:37.314Z,17.20
2018-12-17T14:55:09.503Z,17.20
2018-12-17T14:57:42.377Z,17.60
2018-12-17T15:00:14.924Z,18.10
2018-12-17T15:02:47.814Z,18.20
2018-12-17T15:05:19.954Z,17.93
2018-12-17T15:07:56.349Z,18.37
2018-12-17T15:10:29.059Z,19.60
2018-12-17T15:13:01.943Z,17.93
2018-12-17T15:15:34.255Z,18.03
2018-12-17T15:18:07.176Z,17.33
2018-12-17T15:20:40.096Z,20.70
2018-12-17T15:23:13.076Z,20.57
2018-12-17T15:25:46.131Z,20.87
2018-12-17T15:28:18.894Z,18.93
2018-12-17T15:30:52.208Z,20.17
2018-12-17T15:33:24.445Z,18.97
2018-12-17T15:35:56.563Z,18.40
2018-12-17T15:38:28.753Z,17.97
2018-12-17T15:41:00.944Z,19.13
2018-12-17T15:43:33.856Z,18.27
2018-12-17T15:48:39.948Z,19.13
2018-12-17T15:51:12.931Z,18.03
2018-12-17T15:53:47.552Z,19.07
2018-12-17T15:56:19.643Z,19.73
2018-12-17T15:58:51.776Z,22.93
2018-12-17T16:01:23.962Z,25.68
2018-12-17T16:03:56.321Z,26.20
2018-12-17T16:06:29.160Z,20.03
2018-12-17T16:09:01.260Z,17.60
2018-12-17T16:11:33.386Z,20.30
2018-12-17T16:14:05.628Z,18.97
2018-12-17T16:16:38.652Z,18.97
2018-12-17T16:19:10.732Z,20.07
2018-12-17T16:21:42.834Z,18.87
2018-12-17T16:24:15.178Z,18.67
2018-12-17T16:26:44.268Z,17.87
2018-12-17T16:29:16.820Z,19.60
2018-12-17T16:31:49.192Z,18.23
2018-12-17T16:34:18.246Z,18.57
2018-12-17T16:36:47.520Z,16.90
2018-12-17T16:39:16.708Z,17.13
2018-12-17T16:41:45.789Z,17.67
2018-12-17T16:44:14.921Z,24.10
2018-12-17T16:46:44.875Z,24.82
2018-12-17T16:49:19.659Z,21.23
2018-12-17T16:51:48.793Z,19.87
2018-12-17T16:54:17.873Z,18.13
2018-12-17T16:56:46.914Z,18.03
2018-12-17T16:59:16.002Z,18.00
2018-12-17T17:01:45.112Z,16.73
2018-12-17T17:04:14.182Z,16.77
2018-12-17T17:06:43.225Z,18.47
2018-12-17T17:09:12.296Z,26.67
2018-12-17T17:11:41.360Z,30.07
2018-12-17T17:14:10.434Z,30.73
2018-12-17T17:16:39.501Z,29.57
2018-12-17T17:19:08.559Z,26.47
2018-12-17T17:21:37.836Z,24.57
2018-12-17T17:24:06.909Z,22.77
2018-12-17T17:26:35.962Z,20.00
2018-12-17T17:29:05.039Z,22.13
2018-12-17T17:31:34.211Z,33.17
2018-12-17T17:34:03.270Z,33.33
2018-12-17T17:36:36.172Z,33.57
2018-12-17T17:39:09.247Z,32.50
2018-12-17T17:41:44.328Z,23.07
2018-12-17T17:44:15.160Z,18.77
2018-12-17T17:46:47.411Z,18.57
2018-12-17T17:49:19.528Z,20.53
2018-12-17T17:51:52.573Z,22.10
2018-12-17T17:54:27.388Z,26.53
2018-12-17T17:56:57.692Z,22.70
2018-12-17T17:59:32.454Z,20.63
2018-12-17T18:02:05.010Z,19.77
2018-12-17T18:04:37.227Z,18.63
2018-12-17T18:07:10.185Z,18.37
2018-12-17T18:09:43.308Z,19.77
2018-12-17T18:12:17.892Z,17.73
2018-12-17T18:17:41.176Z,17.23
2018-12-17T18:20:17.802Z,15.27
2018-12-17T18:22:55.915Z,16.03
2018-12-17T18:25:29.516Z,17.10
2018-12-17T18:28:03.663Z,18.37
2018-12-17T18:30:39.507Z,17.33
2018-12-17T18:33:12.598Z,16.77
2018-12-17T18:35:46.727Z,18.43
2018-12-17T18:38:17.425Z,21.30
2018-12-17T18:40:50.348Z,21.03
2018-12-17T18:43:23.472Z,22.10
2018-12-17T18:45:56.189Z,19.13
2018-12-17T18:48:31.536Z,18.67
2018-12-17T18:51:09.643Z,18.23
2018-12-17T18:53:41.977Z,17.43
2018-12-17T18:56:14.937Z,20.07
2018-12-17T18:58:45.188Z,21.80
2018-12-17T19:01:18.715Z,23.93
2018-12-17T19:03:49.961Z,20.33
2018-12-17T19:06:23.788Z,19.50
2018-12-17T19:08:58.111Z,17.20
2018-12-17T19:11:32.476Z,16.83
2018-12-17T19:14:05.293Z,17.67
2018-12-17T19:16:37.829Z,17.00
2018-12-17T19:19:11.503Z,17.17
2018-12-17T19:21:44.072Z,18.23
2018-12-17T19:24:16.388Z,18.33
2018-12-17T19:26:49.759Z,22.53
2018-12-17T19:29:20.476Z,31.77
2018-12-17T19:31:51.299Z,21.83
2018-12-17T19:34:22.789Z,18.67
2018-12-17T19:36:55.983Z,21.10
2018-12-17T19:39:31.518Z,18.47
2018-12-17T19:42:04.862Z,19.13
2018-12-17T19:44:38.018Z,18.43
2018-12-17T19:47:11.286Z,19.53
2018-12-17T19:49:46.525Z,18.73
2018-12-17T19:52:21.262Z,19.60
2018-12-17T19:54:54.010Z,19.30
2018-12-17T19:57:26.240Z,19.37
2018-12-17T19:59:59.228Z,20.23
2018-12-17T20:02:36.689Z,20.37
2018-12-17T20:05:11.939Z,23.67
2018-12-17T20:07:46.196Z,23.80
2018-12-17T20:10:27.638Z,23.27
2018-12-17T20:13:02.402Z,18.97
2018-12-17T20:15:42.185Z,19.53
2018-12-17T20:18:16.098Z,19.03
2018-12-17T20:20:57.390Z,17.87
2018-12-17T20:23:31.404Z,18.70
2018-12-17T20:26:10.365Z,18.77
2018-12-17T20:28:54.684Z,17.57
2018-12-17T20:31:30.039Z,18.07
2018-12-17T20:34:04.102Z,17.60
2018-12-17T20:36:37.977Z,18.50
2018-12-17T20:39:13.861Z,18.10
2018-12-17T20:41:47.670Z,18.20
2018-12-17T20:44:22.470Z,18.33
2018-12-17T20:47:02.568Z,18.30
2018-12-17T20:49:48.309Z,18.23
2018-12-17T20:52:20.859Z,19.07
2018-12-17T20:54:53.392Z,19.20
2018-12-17T20:57:27.343Z,18.53
2018-12-17T21:00:04.345Z,21.40
2018-12-17T21:02:46.424Z,21.27
2018-12-17T21:05:26.866Z,20.60
2018-12-17T21:08:05.384Z,17.63
2018-12-17T21:10:40.911Z,18.00
2018-12-17T21:13:21.960Z,17.80
2018-12-17T21:15:56.417Z,17.90
2018-12-17T21:18:37.976Z,20.10
2018-12-17T21:21:12.566Z,20.13
2018-12-17T21:23:51.572Z,20.83
2018-12-17T21:26:30.362Z,21.73
2018-12-17T21:29:07.981Z,21.37
2018-12-17T21:31:46.563Z,15.40
2018-12-17T21:34:25.994Z,14.27
2018-12-17T21:36:59.861Z,13.20
2018-12-17T21:39:32.653Z,13.43
2018-12-17T21:42:09.067Z,12.90
2018-12-17T21:44:42.731Z,13.03
2018-12-17T21:47:14.697Z,14.77
2018-12-17T21:49:47.922Z,16.67
2018-12-17T21:52:22.489Z,26.00
2018-12-17T21:54:55.295Z,20.97
2018-12-17T21:57:35.800Z,21.33
2018-12-17T22:00:10.590Z,22.43
2018-12-17T22:02:48.313Z,21.27
2018-12-17T22:05:21.264Z,27.37
2018-12-17T22:07:56.708Z,24.10
2018-12-17T22:10:36.457Z,19.30
2018-12-17T22:13:11.796Z,18.93
2018-12-17T22:15:47.788Z,19.23
2018-12-17T22:18:22.595Z,19.83
2018-12-17T22:20:55.386Z,20.20
